createdAt,value
2023-01-01T00:00:03.022Z,90.09399414
2023-01-01T00:01:03.806Z,90.09399414
2023-01-01T00:02:05.274Z,89.99633789
2023-01-01T00:03:06.034Z,89.99633789
2023-01-01T00:04:06.643Z,89.99633789
2023-01-01T00:05:07.341Z,90.09399414
2023-01-01T00:06:08.105Z,89.99633789
2023-01-01T00:07:39.341Z,89.78881836
2023-01-01T00:08:40.686Z,89.68505859
2023-01-01T00:09:41.431Z,89.58129883
2023-01-01T00:10:42.987Z,89.68505859
2023-01-01T00:11:43.698Z,89.68505859
2023-01-01T00:12:44.463Z,89.68505859
2023-01-01T00:13:45.239Z,89.58129883
2023-01-01T00:14:45.951Z,89.68505859
2023-01-01T00:15:46.726Z,89.78881836
2023-01-01T00:16:47.558Z,89.68505859
2023-01-01T00:17:48.213Z,89.58129883
2023-01-01T00:18:48.972Z,89.58129883
2023-01-01T00:19:50.491Z,89.68505859
2023-01-01T00:20:51.211Z,89.68505859
2023-01-01T00:21:52.004Z,89.68505859
2023-01-01T00:22:54.977Z,89.68505859
2023-01-01T00:23:53.479Z,89.68505859
2023-01-01T00:24:54.214Z,89.37988281
2023-01-01T00:25:54.945Z,89.37988281
2023-01-01T00:26:55.671Z,89.37988281
2023-01-01T00:27:56.430Z,89.37988281
2023-01-01T00:28:58.025Z,89.17236328
2023-01-01T00:29:59.513Z,89.06860352
2023-01-01T00:31:00.291Z,88.96484375
2023-01-01T00:32:01.150Z,88.96484375
2023-01-01T00:33:01.818Z,88.45214844
2023-01-01T00:34:03.600Z,88.2019043
2023-01-01T00:35:04.285Z,88.14086914
2023-01-01T00:36:05.083Z,88.24462891
2023-01-01T00:37:05.828Z,88.45214844
2023-01-01T00:38:06.576Z,88.75732422
2023-01-01T00:39:08.546Z,88.45214844
2023-01-01T00:40:40.693Z,88.5559082
2023-01-01T00:41:41.452Z,88.75732422
2023-01-01T00:42:42.198Z,89.11132813
2023-01-01T00:43:42.957Z,89.41650391
2023-01-01T00:44:43.708Z,89.41650391
2023-01-01T00:45:44.587Z,89.31274414
2023-01-01T00:46:45.321Z,89.21508789
2023-01-01T00:47:46.158Z,89.41650391
2023-01-01T00:48:46.953Z,89.41650391
2023-01-01T00:49:48.596Z,89.62402344
2023-01-01T00:50:49.290Z,89.83154297
2023-01-01T00:51:50.063Z,89.93530273
2023-01-01T00:52:50.774Z,90.03295898
2023-01-01T00:53:51.509Z,90.03295898
2023-01-01T00:54:52.295Z,89.93530273
2023-01-01T00:55:53.034Z,89.83154297
2023-01-01T00:56:53.748Z,89.52026367
2023-01-01T00:57:54.501Z,89.41650391
2023-01-01T00:59:00.695Z,89.52026367
2023-01-01T00:59:57.666Z,89.52026367
2023-01-01T01:00:58.407Z,89.41650391
2023-01-01T01:01:59.362Z,89.41650391
2023-01-01T01:02:59.956Z,89.52026367
2023-01-01T01:04:00.684Z,89.31274414
2023-01-01T01:05:01.633Z,89.21508789
2023-01-01T01:06:02.160Z,89.31274414
2023-01-01T01:07:02.921Z,89.31274414
2023-01-01T01:08:03.644Z,89.31274414
2023-01-01T01:09:04.362Z,89.21508789
2023-01-01T01:10:06.064Z,89.21508789
2023-01-01T01:11:06.767Z,89.27612305
2023-01-01T01:12:17.632Z,89.06860352
2023-01-01T01:13:38.675Z,88.96484375
2023-01-01T01:14:39.416Z,88.75732422
2023-01-01T01:15:40.179Z,88.65966797
2023-01-01T01:16:41.819Z,88.65966797
2023-01-01T01:17:42.489Z,88.45214844
2023-01-01T01:18:43.240Z,88.5925293
2023-01-01T01:19:44.654Z,88.80004883
2023-01-01T01:20:45.431Z,89.00756836
2023-01-01T01:21:46.117Z,88.86108398
2023-01-01T01:22:47.535Z,88.90380859
2023-01-01T01:23:48.253Z,88.90380859
2023-01-01T01:24:48.951Z,88.80004883
2023-01-01T01:25:49.723Z,88.90380859
2023-01-01T01:26:50.405Z,88.90380859
2023-01-01T01:27:51.158Z,88.80004883
2023-01-01T01:28:51.971Z,88.69628906
2023-01-01T01:29:53.720Z,88.5925293
2023-01-01T01:30:54.543Z,88.69628906
2023-01-01T01:31:55.156Z,88.69628906
2023-01-01T01:32:56.127Z,88.69628906
2023-01-01T01:33:56.965Z,88.80004883
2023-01-01T01:34:57.829Z,88.90380859
2023-01-01T01:35:58.600Z,88.90380859
2023-01-01T01:36:59.317Z,88.69628906
2023-01-01T01:38:00.106Z,88.69628906
2023-01-01T01:39:00.951Z,88.80004883
2023-01-01T01:40:02.606Z,88.69628906
2023-01-01T01:41:04.212Z,88.90380859
2023-01-01T01:42:04.923Z,88.90380859
2023-01-01T01:43:05.767Z,88.80004883
2023-01-01T01:44:06.650Z,88.80004883
2023-01-01T01:45:07.961Z,88.69628906
2023-01-01T01:46:39.090Z,88.5925293
2023-01-01T01:47:39.838Z,88.5925293
2023-01-01T01:48:40.687Z,88.69628906
2023-01-01T01:49:42.232Z,88.90380859
2023-01-01T01:50:43.093Z,88.73901367
2023-01-01T01:51:43.947Z,88.84277344
2023-01-01T01:52:44.706Z,89.00756836
2023-01-01T01:53:45.523Z,88.90380859
2023-01-01T01:54:46.364Z,88.80004883
2023-01-01T01:55:47.213Z,88.69628906
2023-01-01T01:56:48.007Z,88.5925293
2023-01-01T01:57:48.681Z,88.63525391
2023-01-01T01:58:50.184Z,88.90380859
2023-01-01T01:59:51.726Z,88.69628906
2023-01-01T02:00:52.564Z,88.39111328
2023-01-01T02:01:53.609Z,88.28735352
2023-01-01T02:02:54.192Z,88.22631836
2023-01-01T02:03:54.903Z,88.53149414
2023-01-01T02:04:55.759Z,88.73901367
2023-01-01T02:05:56.628Z,88.63525391
2023-01-01T02:06:57.838Z,88.63525391
2023-01-01T02:07:58.460Z,88.63525391
2023-01-01T02:09:00.139Z,88.42773438
2023-01-01T02:10:01.709Z,88.33007813
2023-01-01T02:11:02.511Z,88.33007813
2023-01-01T02:12:03.414Z,88.53149414
2023-01-01T02:13:04.185Z,88.84277344
2023-01-01T02:14:04.918Z,89.05029297
2023-01-01T02:15:05.747Z,88.9465332
2023-01-01T02:16:06.653Z,87.91503906
2023-01-01T02:17:39.513Z,87.70751953
2023-01-01T02:18:39.000Z,87.60375977
2023-01-01T02:19:39.816Z,87.75024414
2023-01-01T02:20:41.569Z,87.75024414
2023-01-01T02:21:42.443Z,87.85400391
2023-01-01T02:22:43.286Z,87.95776367
2023-01-01T02:23:45.169Z,87.85400391
2023-01-01T02:24:45.900Z,87.85400391
2023-01-01T02:25:46.709Z,87.85400391
2023-01-01T02:26:47.545Z,87.95776367
2023-01-01T02:27:48.502Z,88.06152344
2023-01-01T02:28:49.277Z,88.1652832
2023-01-01T02:29:50.087Z,88.26293945
2023-01-01T02:30:51.543Z,88.26293945
2023-01-01T02:31:52.387Z,88.1652832
2023-01-01T02:32:53.240Z,88.1652832
2023-01-01T02:33:54.068Z,88.06152344
2023-01-01T02:34:54.826Z,88.1652832
2023-01-01T02:35:55.576Z,88.06152344
2023-01-01T02:36:56.496Z,88.1652832
2023-01-01T02:37:57.617Z,88.36669922
2023-01-01T02:38:58.483Z,88.36669922
2023-01-01T02:40:00.055Z,88.36669922
2023-01-01T02:41:01.549Z,88.26293945
2023-01-01T02:42:02.416Z,87.95776367
2023-01-01T02:43:03.300Z,87.64648438
2023-01-01T02:45:05.141Z,87.64648438
2023-01-01T02:46:05.924Z,87.54272461
2023-01-01T02:47:07.100Z,87.37792969
2023-01-01T02:48:38.354Z,87.37792969
2023-01-01T02:49:39.183Z,87.37792969
2023-01-01T02:50:40.569Z,87.37792969
2023-01-01T02:51:41.322Z,87.48168945
2023-01-01T02:52:42.121Z,87.48168945
2023-01-01T02:53:42.979Z,87.58544922
2023-01-01T02:54:43.902Z,87.68920898
2023-01-01T02:55:44.755Z,87.68920898
2023-01-01T02:56:45.503Z,87.89672852
2023-01-01T02:57:46.235Z,87.89672852
2023-01-01T02:58:47.206Z,88.09814453
2023-01-01T02:59:48.590Z,88.2019043
2023-01-01T03:00:50.129Z,88.30566406
2023-01-01T03:01:51.065Z,88.30566406
2023-01-01T03:02:51.982Z,88.47045898
2023-01-01T03:03:52.628Z,88.67797852
2023-01-01T03:04:53.498Z,88.78173828
2023-01-01T03:05:54.337Z,88.88549805
2023-01-01T03:06:55.179Z,88.78173828
2023-01-01T03:07:55.943Z,88.57421875
2023-01-01T03:08:56.641Z,88.67797852
2023-01-01T03:10:28.224Z,88.47045898
2023-01-01T03:11:59.511Z,88.47045898
2023-01-01T03:13:00.297Z,88.26293945
2023-01-01T03:14:01.008Z,88.06152344
2023-01-01T03:15:01.824Z,87.95776367
2023-01-01T03:16:02.735Z,87.95776367
2023-01-01T03:17:03.499Z,87.95776367
2023-01-01T03:18:04.232Z,88.1652832
2023-01-01T03:19:05.004Z,88.1652832
2023-01-01T03:20:05.812Z,88.06152344
2023-01-01T03:21:38.083Z,87.85400391
2023-01-01T03:23:44.525Z,87.79296875
2023-01-01T03:24:40.568Z,87.85400391
2023-01-01T03:25:41.365Z,87.99438477
2023-01-01T03:26:42.326Z,88.09814453
2023-01-01T03:27:43.205Z,88.2019043
2023-01-01T03:28:44.100Z,88.30566406
2023-01-01T03:29:45.681Z,88.40942383
2023-01-01T03:30:46.668Z,88.26293945
2023-01-01T03:31:47.376Z,88.06152344
2023-01-01T03:32:49.149Z,87.54272461
2023-01-01T03:33:49.932Z,87.37792969
2023-01-01T03:34:50.733Z,87.37792969
2023-01-01T03:35:51.463Z,87.58544922
2023-01-01T03:36:52.325Z,87.79296875
2023-01-01T03:37:53.248Z,87.99438477
2023-01-01T03:38:54.109Z,88.09814453
2023-01-01T03:39:55.674Z,88.2019043
2023-01-01T03:40:57.173Z,88.2019043
2023-01-01T03:41:58.352Z,88.30566406
2023-01-01T03:42:59.100Z,88.2019043
2023-01-01T03:43:59.979Z,88.40942383
2023-01-01T03:45:00.802Z,88.30566406
2023-01-01T03:46:01.582Z,88.2019043
2023-01-01T03:47:02.480Z,87.99438477
2023-01-01T03:48:03.280Z,88.09814453
2023-01-01T03:49:04.635Z,88.09814453
2023-01-01T03:50:05.047Z,88.2019043
2023-01-01T03:51:36.962Z,87.99438477
2023-01-01T03:52:37.732Z,87.89672852
2023-01-01T03:53:38.664Z,87.99438477
2023-01-01T03:54:39.542Z,88.09814453
2023-01-01T03:55:40.376Z,88.09814453
2023-01-01T03:56:41.142Z,88.09814453
2023-01-01T03:57:42.034Z,88.09814453
2023-01-01T03:58:42.904Z,88.09814453
2023-01-01T03:59:44.728Z,88.09814453
2023-01-01T04:00:45.582Z,87.99438477
2023-01-01T04:01:47.293Z,87.89672852
2023-01-01T04:02:48.052Z,87.89672852
2023-01-01T04:03:48.751Z,87.89672852
2023-01-01T04:04:49.626Z,87.79296875
2023-01-01T04:05:50.472Z,87.89672852
2023-01-01T04:06:51.318Z,87.99438477
2023-01-01T04:07:52.043Z,87.99438477
2023-01-01T04:08:53.620Z,87.99438477
2023-01-01T04:09:54.475Z,87.99438477
2023-01-01T04:10:56.207Z,88.09814453
2023-01-01T04:11:57.049Z,88.2019043
2023-01-01T04:12:57.776Z,87.99438477
2023-01-01T04:13:58.520Z,87.79296875
2023-01-01T04:14:59.449Z,87.68920898
2023-01-01T04:16:00.454Z,87.48168945
2023-01-01T04:17:01.172Z,87.37792969
2023-01-01T04:18:01.911Z,87.17041016
2023-01-01T04:19:02.717Z,87.27416992
2023-01-01T04:20:03.582Z,87.17041016
2023-01-01T04:21:05.219Z,86.96899414
2023-01-01T04:22:36.737Z,86.96899414
2023-01-01T04:23:37.417Z,86.86523438
2023-01-01T04:24:38.254Z,86.86523438
2023-01-01T04:25:39.142Z,86.96899414
2023-01-01T04:26:40.021Z,87.17041016
2023-01-01T04:27:40.864Z,86.86523438
2023-01-01T04:28:41.579Z,86.76147461
2023-01-01T04:29:42.510Z,86.65771484
2023-01-01T04:30:44.214Z,86.70043945
2023-01-01T04:31:45.163Z,86.70043945
2023-01-01T04:32:46.932Z,86.7980957
2023-01-01T04:33:47.660Z,86.90185547
2023-01-01T04:34:48.468Z,87.00561523
2023-01-01T04:35:49.326Z,87.21313477
2023-01-01T04:36:50.316Z,87.31689453
2023-01-01T04:37:50.990Z,87.4206543
2023-01-01T04:38:51.884Z,87.4206543
2023-01-01T04:39:52.643Z,87.52441406
2023-01-01T04:40:54.187Z,87.62817383
2023-01-01T04:41:55.062Z,87.82958984
2023-01-01T04:42:55.876Z,88.03710938
2023-01-01T04:43:56.714Z,88.24462891
2023-01-01T04:44:57.628Z,88.45214844
2023-01-01T04:45:58.456Z,88.5559082
2023-01-01T04:47:00.330Z,88.65356445
2023-01-01T04:48:00.165Z,88.65356445
2023-01-01T04:49:00.991Z,88.65356445
2023-01-01T04:50:01.696Z,88.75732422
2023-01-01T04:51:03.215Z,88.65356445
2023-01-01T04:52:04.155Z,88.65356445
2023-01-01T04:53:04.977Z,88.45214844
2023-01-01T04:54:36.254Z,88.14086914
2023-01-01T04:55:36.964Z,87.62817383
2023-01-01T04:56:37.723Z,87.4206543
2023-01-01T04:57:38.684Z,87.21313477
2023-01-01T04:58:39.625Z,87.109375
2023-01-01T04:59:41.191Z,87.00561523
2023-01-01T05:00:41.980Z,86.70043945
2023-01-01T05:01:43.852Z,86.49291992
2023-01-01T05:02:44.687Z,86.49291992
2023-01-01T05:03:45.515Z,86.52954102
2023-01-01T05:04:46.456Z,86.70043945
2023-01-01T05:05:51.284Z,86.59667969
2023-01-01T05:06:48.008Z,86.49291992
2023-01-01T05:07:48.956Z,86.38916016
2023-01-01T05:08:49.779Z,86.28540039
2023-01-01T05:09:50.769Z,86.32202148
2023-01-01T05:10:52.073Z,86.42578125
2023-01-01T05:11:52.879Z,86.63330078
2023-01-01T05:12:54.705Z,86.73706055
2023-01-01T05:13:55.627Z,86.84082031
2023-01-01T05:14:56.584Z,87.04833984
2023-01-01T05:15:57.604Z,87.25585938
2023-01-01T05:16:58.398Z,87.31689453
2023-01-01T05:17:59.227Z,87.109375
2023-01-01T05:19:00.149Z,87.00561523
2023-01-01T05:20:01.040Z,87.00561523
2023-01-01T05:21:02.720Z,87.109375
2023-01-01T05:22:10.224Z,87.21313477
2023-01-01T05:23:35.879Z,87.31689453
2023-01-01T05:24:36.745Z,87.52441406
2023-01-01T05:25:37.635Z,87.72583008
2023-01-01T05:26:38.478Z,87.82958984
2023-01-01T05:27:40.169Z,88.03710938
2023-01-01T05:28:40.984Z,88.03710938
2023-01-01T05:29:41.893Z,87.82958984
2023-01-01T05:30:42.795Z,87.82958984
2023-01-01T05:31:44.803Z,87.72583008
2023-01-01T05:32:45.662Z,87.72583008
2023-01-01T05:33:46.443Z,87.93334961
2023-01-01T05:34:47.367Z,88.24462891
2023-01-01T05:35:48.203Z,88.34838867
2023-01-01T05:36:49.048Z,88.24462891
2023-01-01T05:37:49.814Z,88.03710938
2023-01-01T05:38:50.618Z,87.62817383
2023-01-01T05:39:51.483Z,87.4206543
2023-01-01T05:40:53.148Z,87.31689453
2023-01-01T05:41:54.063Z,87.00561523
2023-01-01T05:42:55.615Z,86.7980957
2023-01-01T05:43:56.373Z,86.90185547
2023-01-01T05:44:57.426Z,87.109375
2023-01-01T05:45:58.314Z,87.35351563
2023-01-01T05:46:59.192Z,87.4206543
2023-01-01T05:48:00.211Z,87.15209961
2023-01-01T05:49:00.922Z,87.04833984
2023-01-01T05:51:02.664Z,87.25585938
2023-01-01T05:52:04.197Z,87.66479492
2023-01-01T05:53:35.532Z,87.66479492
2023-01-01T05:54:36.288Z,87.76855469
2023-01-01T05:55:37.043Z,87.87231445
2023-01-01T05:56:37.947Z,87.87231445
2023-01-01T05:57:38.845Z,87.97607422
2023-01-01T05:58:39.701Z,88.03710938
2023-01-01T05:59:40.541Z,87.93334961
2023-01-01T06:00:42.098Z,88.03710938
2023-01-01T06:01:45.799Z,88.03710938
2023-01-01T06:02:44.843Z,88.14086914
2023-01-01T06:03:45.558Z,88.14086914
2023-01-01T06:04:46.408Z,88.14086914
2023-01-01T06:05:47.178Z,88.03710938
2023-01-01T06:06:48.023Z,88.03710938
2023-01-01T06:07:49.038Z,88.03710938
2023-01-01T06:08:49.815Z,87.93334961
2023-01-01T06:09:50.734Z,87.93334961
2023-01-01T06:10:51.513Z,88.03710938
2023-01-01T06:11:53.063Z,88.24462891
2023-01-01T06:12:54.699Z,87.93334961
2023-01-01T06:13:55.660Z,88.03710938
2023-01-01T06:14:56.634Z,88.03710938
2023-01-01T06:15:57.600Z,87.93334961
2023-01-01T06:16:58.532Z,87.93334961
2023-01-01T06:17:59.287Z,87.82958984
2023-01-01T06:19:00.209Z,87.82958984
2023-01-01T06:20:01.082Z,87.82958984
2023-01-01T06:21:01.890Z,87.72583008
2023-01-01T06:22:03.666Z,87.93334961
2023-01-01T06:23:35.173Z,88.14086914
2023-01-01T06:24:39.080Z,88.24462891
2023-01-01T06:25:36.932Z,88.24462891
2023-01-01T06:26:37.755Z,88.03710938
2023-01-01T06:27:38.587Z,88.03710938
2023-01-01T06:28:39.424Z,88.03710938
2023-01-01T06:29:40.351Z,88.03710938
2023-01-01T06:30:41.275Z,87.99438477
2023-01-01T06:31:42.667Z,87.79296875
2023-01-01T06:32:43.541Z,87.58544922
2023-01-01T06:33:44.481Z,87.58544922
2023-01-01T06:34:45.307Z,87.58544922
2023-01-01T06:35:46.243Z,87.48168945
2023-01-01T06:36:47.195Z,87.37792969
2023-01-01T06:37:48.102Z,87.37792969
2023-01-01T06:38:48.951Z,87.37792969
2023-01-01T06:39:49.738Z,87.17041016
2023-01-01T06:40:50.616Z,87.17041016
2023-01-01T06:41:52.141Z,87.06665039
2023-01-01T06:42:52.925Z,87.06665039
2023-01-01T06:43:53.668Z,87.17041016
2023-01-01T06:44:54.430Z,87.17041016
2023-01-01T06:45:55.353Z,87.17041016
2023-01-01T06:46:56.241Z,87.27416992
2023-01-01T06:47:58.772Z,87.06665039
2023-01-01T06:48:58.153Z,86.86523438
2023-01-01T06:49:58.864Z,86.86523438
2023-01-01T06:50:59.870Z,86.96899414
2023-01-01T06:52:01.710Z,87.06665039
2023-01-01T06:53:02.587Z,87.06665039
2023-01-01T06:54:04.035Z,86.76147461
2023-01-01T06:55:35.232Z,86.76147461
2023-01-01T06:56:36.146Z,86.86523438
2023-01-01T06:57:37.095Z,86.96899414
2023-01-01T06:58:37.980Z,87.06665039
2023-01-01T06:59:38.815Z,87.17041016
2023-01-01T07:00:39.559Z,87.06665039
2023-01-01T07:01:41.174Z,86.86523438
2023-01-01T07:02:42.848Z,86.86523438
2023-01-01T07:03:43.535Z,86.96899414
2023-01-01T07:04:44.253Z,86.96899414
2023-01-01T07:05:45.028Z,87.17041016
2023-01-01T07:06:45.831Z,87.06665039
2023-01-01T07:07:46.694Z,87.17041016
2023-01-01T07:08:47.568Z,87.37792969
2023-01-01T07:09:48.483Z,87.48168945
2023-01-01T07:10:50.156Z,87.58544922
2023-01-01T07:11:51.678Z,87.58544922
2023-01-01T07:12:52.472Z,87.58544922
2023-01-01T07:13:53.220Z,87.58544922
2023-01-01T07:14:54.056Z,87.58544922
2023-01-01T07:15:54.910Z,87.58544922
2023-01-01T07:16:55.653Z,87.58544922
2023-01-01T07:17:56.549Z,87.48168945
2023-01-01T07:18:57.817Z,87.58544922
2023-01-01T07:19:58.617Z,87.58544922
2023-01-01T07:20:59.440Z,87.58544922
2023-01-01T07:22:01.149Z,87.37792969
2023-01-01T07:23:01.900Z,87.48168945
2023-01-01T07:24:02.689Z,87.58544922
2023-01-01T07:25:34.415Z,87.79296875
2023-01-01T07:26:35.087Z,87.89672852
2023-01-01T07:27:35.916Z,87.99438477
2023-01-01T07:28:36.858Z,88.2019043
2023-01-01T07:29:37.702Z,88.2019043
2023-01-01T07:30:39.227Z,88.2019043
2023-01-01T07:31:40.113Z,88.2019043
2023-01-01T07:32:41.596Z,87.99438477
2023-01-01T07:33:42.324Z,87.89672852
2023-01-01T07:34:48.847Z,87.89672852
2023-01-01T07:35:43.911Z,87.89672852
2023-01-01T07:36:44.732Z,87.99438477
2023-01-01T07:37:45.457Z,88.24462891
2023-01-01T07:38:46.276Z,88.34838867
2023-01-01T07:39:47.093Z,88.5559082
2023-01-01T07:40:48.032Z,88.65356445
2023-01-01T07:41:48.908Z,88.81835938
2023-01-01T07:42:50.579Z,88.72070313
2023-01-01T07:43:51.367Z,88.61694336
2023-01-01T07:44:52.276Z,88.72070313
2023-01-01T07:45:53.157Z,88.92211914
2023-01-01T07:46:53.829Z,88.81835938
2023-01-01T07:47:54.602Z,88.72070313
2023-01-01T07:48:55.404Z,88.61694336
2023-01-01T07:49:56.190Z,88.61694336
2023-01-01T07:50:57.084Z,88.72070313
2023-01-01T07:51:58.202Z,88.92211914
2023-01-01T07:52:59.577Z,89.12963867
2023-01-01T07:54:06.232Z,89.12963867
2023-01-01T07:55:01.210Z,88.92211914
2023-01-01T07:56:02.111Z,89.02587891
2023-01-01T07:57:03.325Z,89.02587891
2023-01-01T07:58:34.544Z,89.02587891
2023-01-01T07:59:35.329Z,89.02587891
2023-01-01T08:00:36.086Z,89.02587891
2023-01-01T08:01:37.862Z,88.78173828
2023-01-01T08:02:39.299Z,88.78173828
2023-01-01T08:03:40.099Z,88.92211914
2023-01-01T08:04:40.897Z,88.92211914
2023-01-01T08:05:41.686Z,89.02587891
2023-01-01T08:06:42.604Z,89.12963867
2023-01-01T08:07:43.398Z,89.19067383
2023-01-01T08:08:44.383Z,88.98925781
2023-01-01T08:09:45.213Z,88.98925781
2023-01-01T08:10:45.987Z,88.57421875
2023-01-01T08:11:46.851Z,88.36669922
2023-01-01T08:12:48.743Z,88.47045898
2023-01-01T08:13:49.660Z,88.67797852
2023-01-01T08:14:50.524Z,88.78173828
2023-01-01T08:15:51.435Z,88.81835938
2023-01-01T08:16:52.340Z,88.92211914
2023-01-01T08:17:53.207Z,88.92211914
2023-01-01T08:18:53.898Z,88.81835938
2023-01-01T08:19:54.730Z,88.72070313
2023-01-01T08:20:55.537Z,88.61694336
2023-01-01T08:21:56.351Z,88.72070313
2023-01-01T08:23:04.561Z,88.67797852
2023-01-01T08:23:59.138Z,88.67797852
2023-01-01T08:25:00.023Z,88.67797852
2023-01-01T08:26:00.854Z,88.67797852
2023-01-01T08:27:01.740Z,88.67797852
2023-01-01T08:28:03.065Z,88.57421875
2023-01-01T08:29:34.337Z,88.47045898
2023-01-01T08:30:35.369Z,88.36669922
2023-01-01T08:31:37.169Z,87.95776367
2023-01-01T08:32:38.671Z,87.75024414
2023-01-01T08:33:39.561Z,87.85400391
2023-01-01T08:34:40.419Z,87.75024414
2023-01-01T08:35:41.342Z,87.75024414
2023-01-01T08:36:42.137Z,87.75024414
2023-01-01T08:37:42.981Z,87.75024414
2023-01-01T08:38:43.885Z,87.85400391
2023-01-01T08:39:44.801Z,87.95776367
2023-01-01T08:40:45.689Z,88.1652832
2023-01-01T08:41:46.555Z,88.36669922
2023-01-01T08:42:48.172Z,88.47045898
2023-01-01T08:43:49.089Z,88.67797852
2023-01-01T08:44:50.028Z,88.47045898
2023-01-01T08:45:50.935Z,88.36669922
2023-01-01T08:46:52.052Z,88.26293945
2023-01-01T08:47:52.785Z,88.26293945
2023-01-01T08:48:53.647Z,88.36669922
2023-01-01T08:49:54.521Z,88.47045898
2023-01-01T08:50:55.395Z,88.67797852
2023-01-01T08:51:56.420Z,88.78173828
2023-01-01T08:52:58.674Z,88.88549805
2023-01-01T08:53:59.468Z,88.78173828
2023-01-01T08:55:00.386Z,88.67797852
2023-01-01T08:56:01.257Z,88.67797852
2023-01-01T08:57:02.144Z,88.78173828
2023-01-01T08:58:33.390Z,88.98925781
2023-01-01T08:59:34.192Z,88.98925781
2023-01-01T09:00:35.025Z,88.98925781
2023-01-01T09:01:36.875Z,88.98925781
2023-01-01T09:02:38.955Z,88.88549805
2023-01-01T09:03:39.641Z,89.08691406
2023-01-01T09:04:40.398Z,89.08691406
2023-01-01T09:05:41.197Z,89.19067383
2023-01-01T09:06:42.114Z,89.29443359
2023-01-01T09:07:43.042Z,89.29443359
2023-01-01T09:08:43.873Z,89.29443359
2023-01-01T09:09:44.805Z,89.39819336
2023-01-01T09:10:45.592Z,89.39819336
2023-01-01T09:11:46.572Z,89.35546875
2023-01-01T09:12:48.163Z,89.19067383
2023-01-01T09:13:49.620Z,89.14794922
2023-01-01T09:14:50.516Z,89.25170898
2023-01-01T09:15:51.310Z,89.35546875
2023-01-01T09:16:52.176Z,89.56298828
2023-01-01T09:17:52.996Z,89.66674805
2023-01-01T09:18:53.882Z,89.77050781
2023-01-01T09:19:54.663Z,89.87426758
2023-01-01T09:20:55.425Z,89.97192383
2023-01-01T09:21:57.407Z,89.87426758
2023-01-01T09:23:04.025Z,89.87426758
2023-01-01T09:24:00.149Z,89.87426758
2023-01-01T09:25:01.039Z,89.87426758
2023-01-01T09:26:02.202Z,89.87426758
2023-01-01T09:27:33.452Z,89.97192383
2023-01-01T09:28:34.361Z,89.97192383
2023-01-01T09:29:35.238Z,89.97192383
2023-01-01T09:30:36.042Z,89.93530273
2023-01-01T09:31:36.921Z,89.93530273
2023-01-01T09:32:37.650Z,89.83154297
2023-01-01T09:33:39.219Z,89.83154297
2023-01-01T09:34:40.197Z,89.83154297
2023-01-01T09:35:41.028Z,89.83154297
2023-01-01T09:36:41.750Z,89.7277832
2023-01-01T09:37:42.552Z,89.52026367
2023-01-01T09:38:43.423Z,89.21508789
2023-01-01T09:39:44.399Z,88.80004883
2023-01-01T09:40:50.796Z,88.5925293
2023-01-01T09:41:46.874Z,88.5925293
2023-01-01T09:42:48.185Z,88.5925293
2023-01-01T09:43:49.199Z,88.80004883
2023-01-01T09:44:51.266Z,88.80004883
2023-01-01T09:45:52.288Z,88.90380859
2023-01-01T09:46:52.969Z,89.00756836
2023-01-01T09:47:53.796Z,88.90380859
2023-01-01T09:48:54.719Z,88.90380859
2023-01-01T09:49:55.734Z,88.90380859
2023-01-01T09:50:56.719Z,89.11132813
2023-01-01T09:51:58.237Z,89.11132813
2023-01-01T09:52:59.224Z,89.11132813
2023-01-01T09:54:00.115Z,90.03295898
2023-01-01T09:55:00.992Z,91.6809082
2023-01-01T09:56:32.719Z,91.33300781
2023-01-01T09:57:33.477Z,90.40527344
2023-01-01T09:58:34.510Z,89.99633789
2023-01-01T09:59:35.374Z,89.89257813
2023-01-01T10:00:36.311Z,89.78881836
2023-01-01T10:01:37.343Z,89.68505859
2023-01-01T10:02:38.577Z,89.58129883
2023-01-01T10:03:40.129Z,89.47753906
2023-01-01T10:04:40.972Z,89.27612305
2023-01-01T10:05:41.812Z,89.06860352
2023-01-01T10:06:42.867Z,88.96484375
2023-01-01T10:07:43.529Z,89.06860352
2023-01-01T10:08:44.355Z,89.06860352
2023-01-01T10:09:45.073Z,88.96484375
2023-01-01T10:10:45.957Z,88.96484375
2023-01-01T10:11:46.871Z,89.06860352
2023-01-01T10:12:47.777Z,89.17236328
2023-01-01T10:13:49.092Z,89.17236328
2023-01-01T10:14:49.911Z,89.06860352
2023-01-01T10:15:50.856Z,89.06860352
2023-01-01T10:16:51.860Z,89.17236328
2023-01-01T10:17:52.559Z,89.17236328
2023-01-01T10:18:53.289Z,89.23339844
2023-01-01T10:19:54.099Z,89.23339844
2023-01-01T10:20:55.109Z,89.23339844
2023-01-01T10:21:56.077Z,89.23339844
2023-01-01T10:22:56.838Z,89.12963867
2023-01-01T10:23:58.607Z,89.12963867
2023-01-01T10:24:59.428Z,89.12963867
2023-01-01T10:26:00.212Z,89.23339844
2023-01-01T10:27:01.700Z,89.23339844
2023-01-01T10:28:32.927Z,89.12963867
2023-01-01T10:29:33.672Z,89.12963867
2023-01-01T10:30:34.458Z,89.12963867
2023-01-01T10:31:36.260Z,89.02587891
2023-01-01T10:32:37.132Z,88.92211914
2023-01-01T10:33:38.752Z,88.92211914
2023-01-01T10:34:39.711Z,89.02587891
2023-01-01T10:35:40.676Z,89.3371582
2023-01-01T10:36:41.550Z,89.64233398
2023-01-01T10:37:42.463Z,89.95361328
2023-01-01T10:38:43.396Z,91.04003906
2023-01-01T10:39:44.236Z,90.9362793
2023-01-01T10:40:45.003Z,90.52734375
2023-01-01T10:41:45.807Z,90.42358398
2023-01-01T10:42:46.703Z,90.21606445
2023-01-01T10:43:48.129Z,90.1184082
2023-01-01T10:44:48.918Z,90.1184082
2023-01-01T10:45:49.762Z,90.1184082
2023-01-01T10:46:50.480Z,90.01464844
2023-01-01T10:47:52.361Z,89.97192383
2023-01-01T10:48:53.229Z,89.86816406
2023-01-01T10:49:54.160Z,89.86816406
2023-01-01T10:50:54.915Z,89.86816406
2023-01-01T10:51:56.643Z,89.97192383
2023-01-01T10:52:57.658Z,90.07568359
2023-01-01T10:53:59.223Z,90.07568359
2023-01-01T10:55:00.073Z,89.97192383
2023-01-01T10:56:01.211Z,89.92919922
2023-01-01T10:57:32.349Z,90.03295898
2023-01-01T10:58:34.115Z,90.13671875
2023-01-01T10:59:34.955Z,90.13671875
2023-01-01T11:00:35.728Z,90.13671875
2023-01-01T11:01:36.647Z,89.92919922
2023-01-01T11:02:37.458Z,89.82543945
2023-01-01T11:03:38.707Z,90.19775391
2023-01-01T11:04:39.528Z,89.88647461
2023-01-01T11:05:40.391Z,89.68505859
2023-01-01T11:06:41.129Z,89.47753906
2023-01-01T11:07:41.951Z,89.3737793
2023-01-01T11:08:43.719Z,89.06860352
2023-01-01T11:10:01.668Z,88.86108398
2023-01-01T11:10:45.410Z,88.81835938
2023-01-01T11:11:46.113Z,88.72070313
2023-01-01T11:13:04.665Z,88.72070313
2023-01-01T11:13:49.437Z,88.61694336